»·PEaware :: N1399 KYKM-KPDX

N1399 :: KYKM-KPDX

FLIGHT INFORMATION

Flight Status: Arrived
Operator: Privately registered:
United States
More flights under this callsign
Pilot: David C. (16084)
Aircraft: ECLIPSE 500
(EA50)
More flights by this aircraft type
Origin: KYKM Yakima Air Term/Mcallister
United States
Destination: KPDX Portland Intl
United States
More flights between these airports :: More routes between these airports
Route: NACHES4 LTJ YENTL HHOOD3
File this flight plan on PilotEdge
Remarks: PBN / D2 DOF / 171012 REG / N1399 OPR / N RMK / TCAS SIMBRIEF
Altitude:
(Current/Filed)
14,000ft
Speed:
(Current/Filed)
328kts
Departed: 12-Oct-17 10:31 AM
Arrived: 12-Oct-17 11:08 AM
Distance/Time
Traveled:
103nm/0:37
Distance/Time
To Go:
Arrived

Flight Plot

Page will automatically refresh every two minutes.

Flight plan parsing failed; only flown route is shown


Map Options




Map Legend


Flown Route
Filed Route
Departure Airport
Arrival Airport
Navaid (VOR, NDB)
Fix

Horizontal Profiles

Position Reports

Time Latitude Longitude Heading Altitude Ground
Speed
12-Oct-17 10:15 46.571941 -120.547321 180 1081ft 0kts
12-Oct-17 10:16 46.571941 -120.547321 180 1081ft 0kts
12-Oct-17 10:17 46.571941 -120.547321 180 1081ft 0kts
12-Oct-17 10:18 46.571941 -120.547321 180 1081ft 0kts
12-Oct-17 10:19 46.571941 -120.547321 180 1081ft 0kts
12-Oct-17 10:20 46.571941 -120.547321 180 1081ft 0kts
12-Oct-17 10:21 46.571941 -120.547321 180 1081ft 0kts
12-Oct-17 10:22 46.571941 -120.547321 180 1081ft 0kts
12-Oct-17 10:23 46.571941 -120.547321 180 1081ft 0kts
12-Oct-17 10:24 46.571941 -120.547321 180 1081ft 0kts
12-Oct-17 10:25 46.571941 -120.547321 180 1081ft 0kts
12-Oct-17 10:26 46.571941 -120.547321 180 1081ft 0kts
12-Oct-17 10:27 46.571941 -120.547321 180 1081ft 0kts
12-Oct-17 10:28 46.571941 -120.547321 180 1081ft 0kts
12-Oct-17 10:29 46.571941 -120.547321 180 1081ft 0kts
12-Oct-17 10:30 46.571941 -120.547321 180 1081ft 0kts
12-Oct-17 10:31 46.571941 -120.547321 180 1081ft 0kts
12-Oct-17 10:31 46.570851 -120.547331 178 1080ft 12kts
12-Oct-17 10:33 46.567906 -120.536178 112 1058ft 34kts
12-Oct-17 10:34 46.566366 -120.531492 180 1052ft 0kts
12-Oct-17 10:35 46.566005 -120.531556 200 1051ft 12kts
12-Oct-17 10:35 46.571798 -120.556198 289 1399ft 147kts
12-Oct-17 10:37 46.615169 -120.596767 334 4637ft 173kts
12-Oct-17 10:37 46.650677 -120.620363 334 7035ft 176kts
12-Oct-17 10:38 46.695354 -120.647578 334 9437ft 184kts
12-Oct-17 10:39 46.709022 -120.698030 232 11848ft 182kts
12-Oct-17 10:41 46.648908 -120.719100 194 13999ft 221kts
12-Oct-17 10:41 46.593232 -120.733983 194 14014ft 263kts
12-Oct-17 10:43 46.499117 -120.761026 194 14011ft 316kts
12-Oct-17 10:43 46.428466 -120.785014 201 14010ft 315kts
12-Oct-17 10:44 46.345405 -120.823210 200 14009ft 320kts
12-Oct-17 10:45 46.260831 -120.861026 200 14022ft 321kts
12-Oct-17 10:46 46.176379 -120.898423 200 14022ft 321kts
12-Oct-17 10:47 46.093791 -120.934819 200 14031ft 322kts
12-Oct-17 10:48 46.009073 -120.972004 200 14047ft 321kts
12-Oct-17 10:49 45.924764 -121.008849 200 14018ft 318kts
12-Oct-17 10:50 45.844926 -121.043667 201 14018ft 316kts
12-Oct-17 10:51 45.763377 -121.079142 201 14018ft 316kts
12-Oct-17 10:52 45.702716 -121.151709 244 13343ft 296kts
12-Oct-17 10:53 45.666818 -121.253688 247 12350ft 289kts
12-Oct-17 10:54 45.633459 -121.355372 248 11354ft 287kts
12-Oct-17 10:55 45.602033 -121.457582 251 10359ft 287kts
12-Oct-17 10:56 45.572956 -121.560702 251 9367ft 287kts
12-Oct-17 10:57 45.545393 -121.658379 251 8919ft 265kts
12-Oct-17 10:58 45.531232 -121.755879 273 8132ft 257kts
12-Oct-17 10:59 45.534583 -121.854682 272 7355ft 254kts
12-Oct-17 11:00 45.538067 -121.949681 271 6725ft 214kts
12-Oct-17 11:01 45.542204 -122.031007 268 6707ft 211kts
12-Oct-17 11:02 45.512622 -122.100162 235 6388ft 220kts
12-Oct-17 11:03 45.479926 -122.166254 234 5006ft 189kts
12-Oct-17 11:04 45.482082 -122.238062 277 3990ft 190kts
12-Oct-17 11:05 45.490414 -122.307079 277 3125ft 160kts
12-Oct-17 11:06 45.497291 -122.362308 277 2385ft 137kts
12-Oct-17 11:07 45.521175 -122.404012 301 2005ft 138kts
12-Oct-17 11:08 45.535944 -122.453152 298 1996ft 139kts
12-Oct-17 11:09 45.554414 -122.497540 277 1015ft 111kts
12-Oct-17 11:10 45.569061 -122.529746 303 355ft 92kts
12-Oct-17 11:11 45.581597 -122.561922 299 163ft 97kts
12-Oct-17 11:12 45.590028 -122.583958 290 32ft 20kts
12-Oct-17 11:13 45.590312 -122.586195 268 32ft 0kts
12-Oct-17 11:14 45.588568 -122.582871 135 32ft 20kts
12-Oct-17 11:15 45.587506 -122.584130 298 32ft 0kts
12-Oct-17 11:16 45.587506 -122.584130 298 32ft 0kts
12-Oct-17 11:17 45.587506 -122.584130 298 32ft 0kts
12-Oct-17 11:18 45.587506 -122.584130 298 32ft 0kts
12-Oct-17 11:19 45.587506 -122.584130 298 32ft 0kts

Navigation Log

Ident Type
Flight plan parsing failed, navigation log unavailable